createdAt,value
2022-09-06T05:02:28.523Z,79.28
2022-09-06T05:04:57.286Z,79.07
2022-09-06T05:07:26.111Z,79.29
2022-09-06T05:09:54.882Z,79.34
2022-09-06T05:12:23.776Z,79.63
2022-09-06T05:14:52.690Z,79.44
2022-09-06T05:17:21.034Z,79.41
2022-09-06T05:19:51.083Z,80.11
2022-09-06T05:22:21.096Z,80.26
2022-09-06T05:24:49.717Z,80.29
2022-09-06T05:27:18.782Z,80.75
2022-09-06T05:29:47.443Z,81.71
2022-09-06T05:32:15.734Z,81.69
2022-09-06T05:34:44.401Z,82.09
2022-09-06T05:37:14.433Z,82.26
2022-09-06T05:39:43.055Z,82.14
2022-09-06T05:42:14.877Z,82.06
2022-09-06T05:44:45.958Z,82.09
2022-09-06T05:47:15.343Z,82.08
2022-09-06T05:49:44.079Z,81.94
2022-09-06T05:52:14.228Z,82.44
2022-09-06T05:54:43.543Z,82.49
2022-09-06T05:57:11.853Z,82.46
2022-09-06T05:59:40.267Z,82.77
2022-09-06T06:02:08.654Z,82.64
2022-09-06T06:04:37.383Z,82.25
2022-09-06T06:07:05.743Z,82.02
2022-09-06T06:09:35.515Z,81.96
2022-09-06T06:12:04.220Z,82.12
2022-09-06T06:14:32.587Z,81.68
2022-09-06T06:17:02.574Z,81.56
2022-09-06T06:19:31.710Z,81.47
2022-09-06T06:22:00.117Z,80.92
2022-09-06T06:24:28.454Z,80.72
2022-09-06T06:26:58.201Z,80.60
2022-09-06T06:29:27.838Z,80.43
2022-09-06T06:31:57.522Z,79.84
2022-09-06T06:34:25.961Z,80.06
2022-09-06T06:36:54.298Z,80.35
2022-09-06T06:39:22.627Z,80.69
2022-09-06T06:41:50.996Z,80.06
2022-09-06T06:44:44.070Z,79.96
2022-09-06T06:47:12.398Z,79.50
2022-09-06T06:49:40.687Z,79.38
2022-09-06T06:52:09.030Z,79.28
2022-09-06T06:54:37.623Z,78.34
2022-09-06T06:57:06.239Z,76.93
2022-09-06T06:59:34.556Z,75.05
2022-09-06T07:02:04.373Z,75.61
2022-09-06T07:04:32.939Z,72.71
2022-09-06T07:12:38.123Z,64.17
2022-09-06T07:15:07.446Z,61.88
2022-09-06T07:17:37.164Z,61.15
2022-09-06T07:20:13.854Z,59.30
2022-09-06T07:22:43.232Z,57.94
2022-09-06T07:25:14.513Z,57.58
2022-09-06T07:30:20.845Z,55.99
2022-09-06T07:32:50.610Z,53.74
2022-09-06T07:35:20.568Z,54.03
2022-09-06T07:37:56.616Z,53.13
2022-09-06T07:40:25.191Z,52.71
2022-09-06T07:42:53.553Z,55.81
2022-09-06T07:45:21.910Z,58.58
2022-09-06T07:50:48.483Z,62.08
2022-09-06T07:53:26.258Z,62.64
2022-09-06T07:55:59.010Z,63.10
2022-09-06T07:58:29.126Z,63.63
2022-09-06T08:01:15.750Z,64.21
2022-09-06T08:03:46.219Z,65.08
2022-09-06T08:06:15.067Z,66.18
2022-09-06T08:08:59.390Z,66.45
2022-09-06T08:11:30.038Z,67.49
2022-09-06T08:14:00.293Z,68.02
2022-09-06T08:16:31.091Z,68.96
2022-09-06T08:19:02.329Z,69.31
2022-09-06T08:21:33.088Z,69.99
2022-09-06T08:24:02.878Z,70.65
2022-09-06T08:26:32.664Z,71.29
2022-09-06T08:29:02.583Z,72.85
2022-09-06T08:31:32.595Z,74.39
2022-09-06T08:34:02.930Z,76.24
2022-09-06T08:36:32.025Z,76.71
2022-09-06T08:39:01.428Z,76.93
2022-09-06T08:41:34.543Z,77.26
2022-09-06T08:46:59.134Z,76.14
2022-09-06T08:49:33.493Z,75.18
2022-09-06T08:52:21.852Z,72.79
2022-09-06T08:55:00.144Z,69.25
2022-09-06T08:57:42.947Z,67.27
2022-09-06T09:00:15.176Z,66.92
2022-09-06T09:02:47.157Z,65.54
2022-09-06T09:05:23.858Z,66.47
2022-09-06T09:08:01.854Z,68.87
2022-09-06T09:10:33.138Z,70.09
2022-09-06T09:13:06.071Z,71.30
2022-09-06T09:15:40.442Z,72.18
2022-09-06T09:18:09.261Z,71.64
2022-09-06T09:20:40.582Z,67.34
2022-09-06T09:23:09.485Z,61.94
2022-09-06T09:25:40.626Z,59.40
2022-09-06T09:28:17.380Z,56.57
2022-09-06T09:30:51.670Z,54.42
2022-09-06T09:33:25.731Z,52.25
2022-09-06T09:35:56.737Z,53.15
2022-09-06T09:38:27.942Z,53.39
2022-09-06T09:40:58.766Z,54.20
2022-09-06T09:43:29.714Z,53.86
2022-09-06T09:46:17.638Z,52.98
2022-09-06T09:49:02.029Z,53.79
2022-09-06T09:51:33.078Z,52.21
2022-09-06T09:54:03.887Z,52.35
2022-09-06T09:56:45.413Z,52.90
2022-09-06T09:59:27.039Z,52.88
2022-09-06T10:01:57.301Z,52.71
2022-09-06T10:07:15.956Z,54.85
2022-09-06T10:09:46.610Z,54.57
2022-09-06T10:12:20.119Z,52.63
2022-09-06T10:14:50.114Z,53.92
2022-09-06T10:17:29.180Z,54.87
2022-09-06T10:19:58.173Z,57.94
2022-09-06T10:22:32.944Z,59.23
2022-09-06T10:25:37.343Z,60.59
2022-09-06T10:28:39.884Z,63.92
2022-09-06T10:31:22.529Z,65.16
2022-09-06T10:34:03.314Z,66.55
2022-09-06T10:36:36.530Z,68.24
2022-09-06T10:39:22.580Z,70.89
2022-09-06T10:42:10.022Z,71.72
2022-09-06T10:44:59.528Z,71.86
2022-09-06T10:47:35.820Z,72.77
2022-09-06T10:50:07.183Z,72.57
2022-09-06T10:52:41.202Z,70.83
2022-09-06T10:55:15.472Z,68.87
2022-09-06T11:00:43.604Z,67.28
2022-09-06T11:06:09.579Z,68.18
2022-09-06T11:08:53.391Z,67.09
2022-09-06T11:11:29.916Z,67.13
2022-09-06T11:14:00.531Z,66.52
2022-09-06T11:16:42.214Z,64.67
2022-09-06T11:19:17.814Z,65.81
2022-09-06T11:22:09.523Z,63.59
2022-09-06T11:25:06.277Z,65.51
2022-09-06T11:27:39.277Z,65.31
2022-09-06T11:30:08.690Z,64.86
2022-09-06T11:32:40.637Z,65.23
2022-09-06T11:35:11.338Z,64.81
2022-09-06T11:37:44.157Z,65.15
2022-09-06T11:40:26.891Z,65.97
2022-09-06T11:43:40.353Z,66.28
2022-09-06T11:46:08.773Z,65.97
2022-09-06T11:49:04.694Z,65.23
2022-09-06T11:54:38.545Z,63.21
2022-09-06T11:57:16.336Z,62.76
2022-09-06T11:59:57.822Z,61.55
2022-09-06T12:02:37.916Z,62.16
2022-09-06T12:05:15.442Z,61.39
2022-09-06T12:08:25.113Z,60.37
2022-09-06T12:11:01.349Z,61.09
2022-09-06T12:13:51.447Z,61.00
2022-09-06T12:16:21.743Z,59.63
2022-09-06T12:19:10.935Z,61.11
2022-09-06T12:21:52.398Z,60.39
2022-09-06T12:24:53.342Z,60.11
2022-09-06T12:27:23.576Z,60.51
2022-09-06T12:29:58.200Z,61.14
2022-09-06T12:32:37.052Z,61.28
2022-09-06T12:37:58.698Z,61.04
2022-09-06T12:40:30.583Z,61.24
2022-09-06T12:42:59.686Z,61.38
2022-09-06T12:45:28.290Z,61.89
2022-09-06T12:48:10.233Z,61.72
2022-09-06T12:50:39.743Z,61.81
2022-09-06T12:53:24.716Z,61.31
2022-09-06T12:56:05.447Z,61.23
2022-09-06T12:58:34.502Z,60.68
2022-09-06T13:01:10.374Z,60.52
2022-09-06T13:03:45.748Z,60.80
2022-09-06T13:06:23.216Z,60.77
2022-09-06T13:08:57.350Z,60.97
2022-09-06T13:11:30.808Z,60.98
2022-09-06T13:13:59.899Z,62.58
2022-09-06T13:16:32.655Z,64.04
2022-09-06T13:19:15.109Z,65.32
2022-09-06T13:21:45.087Z,66.09
2022-09-06T13:24:21.761Z,67.03
2022-09-06T13:26:51.107Z,67.25
2022-09-06T13:29:30.660Z,67.71
2022-09-06T13:32:00.917Z,66.35
2022-09-06T13:34:32.736Z,64.86
2022-09-06T13:37:03.486Z,63.32
2022-09-06T13:39:33.846Z,63.00
2022-09-06T13:42:11.795Z,63.55
2022-09-06T13:47:45.034Z,65.86
2022-09-06T13:50:17.666Z,65.56
2022-09-06T13:52:45.953Z,65.58
2022-09-06T13:55:18.426Z,64.92
2022-09-06T13:57:47.334Z,65.28
2022-09-06T14:00:17.297Z,65.69
2022-09-06T14:02:46.745Z,65.52
2022-09-06T14:05:15.035Z,65.20
2022-09-06T14:07:45.065Z,65.24
2022-09-06T14:10:13.518Z,64.54
2022-09-06T14:12:41.879Z,64.59
2022-09-06T14:15:10.877Z,64.71
2022-09-06T14:17:39.415Z,65.01
2022-09-06T14:20:08.892Z,64.83
2022-09-06T14:22:37.164Z,65.02
2022-09-06T14:25:11.153Z,66.05
2022-09-06T14:27:40.996Z,65.46
2022-09-06T14:30:10.455Z,66.38
2022-09-06T14:32:45.213Z,66.69
2022-09-06T14:35:16.799Z,66.73
2022-09-06T14:37:45.146Z,67.43
2022-09-06T14:40:15.679Z,67.81
2022-09-06T14:42:47.554Z,68.42
2022-09-06T14:45:18.529Z,68.30
2022-09-06T14:47:47.189Z,67.25
2022-09-06T14:50:15.588Z,67.69
2022-09-06T14:52:44.061Z,67.78
2022-09-06T14:55:12.529Z,68.38
2022-09-06T14:57:42.419Z,68.56
2022-09-06T15:00:12.146Z,68.59
2022-09-06T15:02:44.249Z,69.32
2022-09-06T15:05:15.152Z,69.57
2022-09-06T15:07:45.578Z,69.64
2022-09-06T15:10:22.570Z,69.22
2022-09-06T15:13:26.408Z,69.49
2022-09-06T15:16:01.917Z,69.52
2022-09-06T15:18:49.505Z,69.63
2022-09-06T15:21:22.072Z,69.23
2022-09-06T15:23:52.235Z,70.87
2022-09-06T15:26:23.703Z,71.70
2022-09-06T15:28:53.812Z,73.50
2022-09-06T15:31:31.295Z,74.63
2022-09-06T15:34:04.206Z,75.32
2022-09-06T15:36:36.816Z,75.39
2022-09-06T15:42:09.767Z,75.36
2022-09-06T15:44:47.375Z,76.01
2022-09-06T15:47:17.817Z,76.23
2022-09-06T15:49:50.554Z,75.73
2022-09-06T15:52:19.352Z,75.90
2022-09-06T15:55:05.422Z,76.32
2022-09-06T15:57:39.764Z,75.94
2022-09-06T16:00:12.517Z,75.80
2022-09-06T16:02:41.172Z,76.16
2022-09-06T16:05:10.265Z,75.65
2022-09-06T16:07:44.466Z,75.29
2022-09-06T16:10:13.718Z,74.57
2022-09-06T16:12:42.588Z,74.16
2022-09-06T16:15:13.232Z,72.95
2022-09-06T16:17:41.554Z,71.51
2022-09-06T16:20:13.204Z,71.49
2022-09-06T16:22:41.810Z,71.67
2022-09-06T16:25:10.494Z,71.97
2022-09-06T16:27:41.175Z,71.71
2022-09-06T16:30:12.051Z,70.72
2022-09-06T16:32:40.356Z,70.55
2022-09-06T16:35:09.334Z,69.96
2022-09-06T16:37:37.709Z,69.92
2022-09-06T16:40:07.179Z,68.71
2022-09-06T16:42:35.606Z,68.35
2022-09-06T16:45:04.890Z,69.09
2022-09-06T16:47:37.108Z,69.76
2022-09-06T16:50:05.420Z,71.15
2022-09-06T16:52:34.587Z,71.51
2022-09-06T16:55:02.937Z,71.39
2022-09-06T16:57:31.211Z,71.24
2022-09-06T16:59:59.557Z,70.51
2022-09-06T17:02:27.942Z,70.37
2022-09-06T17:04:57.709Z,70.23
2022-09-06T17:07:26.203Z,70.50
2022-09-06T17:10:02.863Z,70.74
2022-09-06T17:12:32.760Z,71.19
2022-09-06T17:15:01.089Z,70.79
2022-09-06T17:17:28.521Z,70.55
2022-09-06T17:19:58.877Z,70.83
2022-09-06T17:22:27.291Z,70.93
2022-09-06T17:24:55.557Z,71.11
2022-09-06T17:27:24.193Z,71.17
2022-09-06T17:29:52.505Z,71.53
2022-09-06T17:32:20.794Z,71.34
2022-09-06T17:34:49.145Z,71.52
2022-09-06T17:37:18.971Z,71.73
2022-09-06T17:39:47.723Z,72.14
2022-09-06T17:42:16.883Z,72.25
2022-09-06T17:44:45.715Z,71.98
2022-09-06T17:47:14.411Z,71.82
2022-09-06T17:49:43.329Z,72.03
2022-09-06T17:52:11.859Z,72.53
2022-09-06T17:54:41.561Z,72.87
2022-09-06T17:57:09.931Z,72.99
2022-09-06T17:59:38.621Z,73.05
2022-09-06T18:02:07.011Z,73.62
2022-09-06T18:04:35.763Z,73.51
2022-09-06T18:07:04.280Z,73.35
2022-09-06T18:09:37.038Z,73.48
2022-09-06T18:12:07.018Z,73.36
2022-09-06T18:14:35.952Z,73.43
2022-09-06T18:17:04.367Z,73.68
2022-09-06T18:19:32.870Z,73.86
2022-09-06T18:22:01.170Z,73.42
2022-09-06T18:24:32.034Z,73.56
2022-09-06T18:27:02.887Z,73.94
2022-09-06T18:29:33.179Z,74.10
2022-09-06T18:32:01.698Z,74.16
2022-09-06T18:34:30.099Z,74.68
2022-09-06T18:36:58.927Z,74.54
2022-09-06T18:39:27.362Z,74.89
2022-09-06T18:42:02.164Z,75.05
2022-09-06T18:44:33.286Z,74.97
2022-09-06T18:47:03.124Z,74.95
2022-09-06T18:49:32.615Z,74.81
2022-09-06T18:52:01.704Z,74.86
2022-09-06T18:54:30.683Z,75.29
2022-09-06T18:57:00.037Z,74.84
2022-09-06T18:59:29.278Z,75.19
2022-09-06T19:01:59.408Z,74.85
2022-09-06T19:04:27.777Z,75.27
2022-09-06T19:06:56.557Z,74.94
2022-09-06T19:09:39.369Z,75.19
2022-09-06T19:12:07.896Z,75.81
2022-09-06T19:14:56.494Z,76.47
2022-09-06T19:17:26.440Z,77.55
2022-09-06T19:19:58.991Z,77.56
2022-09-06T19:22:27.504Z,77.58
2022-09-06T19:24:57.175Z,78.08
2022-09-06T19:27:25.692Z,78.22
2022-09-06T19:29:53.993Z,78.38
2022-09-06T19:32:25.143Z,78.63
2022-09-06T19:34:58.570Z,78.53
2022-09-06T19:37:26.960Z,78.53
2022-09-06T19:39:57.549Z,78.52
2022-09-06T19:42:27.247Z,78.27
2022-09-06T19:44:55.717Z,78.37
2022-09-06T19:47:24.113Z,78.46
2022-09-06T19:49:52.589Z,78.33
2022-09-06T19:52:22.926Z,77.98
2022-09-06T19:56:02.781Z,78.37
2022-09-06T19:58:45.877Z,78.87
2022-09-06T20:01:18.171Z,78.50
2022-09-06T20:03:46.620Z,78.94
2022-09-06T20:06:17.160Z,78.73
2022-09-06T20:12:52.013Z,79.02
2022-09-06T20:15:41.545Z,78.66
2022-09-06T20:19:38.180Z,78.83
2022-09-06T20:41:13.295Z,79.53
2022-09-06T20:48:25.456Z,78.97
2022-09-06T20:56:02.276Z,78.88
2022-09-06T21:08:16.492Z,79.51
2022-09-06T21:10:13.733Z,79.64
2022-09-06T21:15:57.594Z,79.50
2022-09-06T21:19:41.989Z,79.34
2022-09-06T21:25:16.034Z,79.73
2022-09-06T21:27:52.645Z,79.26
2022-09-06T21:30:47.538Z,79.15
2022-09-06T21:33:16.086Z,79.04
2022-09-06T21:35:50.458Z,78.79
2022-09-06T21:38:40.964Z,78.81
2022-09-06T21:41:23.176Z,78.58
2022-09-06T21:43:56.656Z,79.16
2022-09-06T21:46:33.093Z,78.84
2022-09-06T21:52:59.473Z,79.24
2022-09-06T21:56:03.375Z,79.57
2022-09-06T21:58:48.762Z,80.27
2022-09-06T22:05:02.840Z,79.86
2022-09-06T22:07:35.634Z,79.66
2022-09-06T22:11:09.608Z,79.89
2022-09-06T22:13:56.922Z,79.49
2022-09-06T22:16:29.874Z,79.76
2022-09-06T22:19:16.649Z,79.74
2022-09-06T22:22:04.044Z,79.29
2022-09-06T22:24:57.400Z,79.37
2022-09-06T22:28:05.049Z,79.21
2022-09-06T22:30:50.315Z,79.16
2022-09-06T22:36:26.834Z,78.96
2022-09-06T22:39:02.593Z,78.83
2022-09-06T22:42:01.096Z,78.95
2022-09-06T22:44:30.151Z,79.37
2022-09-06T22:47:04.005Z,79.13
2022-09-06T22:49:53.012Z,78.99
2022-09-06T22:52:27.740Z,79.57
2022-09-06T22:54:57.494Z,79.27
2022-09-06T22:57:25.943Z,79.26
2022-09-06T22:59:54.321Z,79.00
2022-09-06T23:02:22.658Z,78.89
2022-09-06T23:04:51.071Z,79.10
2022-09-06T23:07:19.584Z,78.90
2022-09-06T23:09:47.951Z,78.90
2022-09-06T23:12:17.787Z,78.83
2022-09-06T23:14:46.175Z,78.87
2022-09-06T23:17:15.226Z,79.16
2022-09-06T23:19:43.794Z,79.17
2022-09-06T23:22:12.368Z,79.25
2022-09-06T23:24:41.082Z,79.21
2022-09-06T23:27:09.461Z,79.27
2022-09-06T23:29:41.167Z,79.37
2022-09-06T23:32:09.524Z,79.56
2022-09-06T23:34:39.239Z,79.78
2022-09-06T23:37:07.652Z,79.68
2022-09-06T23:39:36.163Z,79.70
2022-09-06T23:42:04.621Z,79.92
2022-09-06T23:44:32.952Z,79.54
2022-09-06T23:47:02.704Z,79.55
2022-09-06T23:49:31.174Z,79.70
2022-09-06T23:51:59.682Z,79.65
2022-09-06T23:54:28.057Z,79.19
2022-09-06T23:56:56.394Z,78.70
2022-09-06T23:59:24.757Z,77.94
